createdAt,value
2018-08-02T00:02:16.947Z,2.00
2018-08-02T00:04:44.526Z,1.60
2018-08-02T00:07:11.549Z,1.60
2018-08-02T00:09:38.815Z,1.50
2018-08-02T00:12:05.853Z,1.60
2018-08-02T00:14:32.932Z,1.40
2018-08-02T00:17:00.052Z,1.80
2018-08-02T00:19:27.182Z,1.77
2018-08-02T00:21:54.182Z,1.90
2018-08-02T00:24:21.171Z,1.90
2018-08-02T00:26:48.212Z,2.20
2018-08-02T00:29:15.209Z,1.60
2018-08-02T00:31:42.201Z,1.80
2018-08-02T00:34:09.280Z,1.93
2018-08-02T00:36:36.290Z,1.90
2018-08-02T00:41:41.791Z,2.00
2018-08-02T00:44:08.783Z,2.53
2018-08-02T00:46:35.792Z,1.80
2018-08-02T00:49:02.867Z,1.87
2018-08-02T00:51:29.849Z,1.97
2018-08-02T00:53:56.845Z,1.80
2018-08-02T00:56:24.847Z,2.17
2018-08-02T00:58:51.851Z,2.27
2018-08-02T01:01:18.837Z,2.27
2018-08-02T01:03:45.905Z,2.07
2018-08-02T01:06:12.914Z,1.87
2018-08-02T01:08:39.911Z,2.10
2018-08-02T01:11:06.958Z,2.03
2018-08-02T01:13:33.948Z,2.10
2018-08-02T01:16:01.022Z,2.30
2018-08-02T01:18:28.019Z,2.43
2018-08-02T01:20:55.110Z,2.10
2018-08-02T01:23:22.010Z,2.40
2018-08-02T01:25:49.869Z,1.80
2018-08-02T01:28:16.922Z,2.33
2018-08-02T01:30:43.930Z,2.33
2018-08-02T01:33:10.987Z,2.23
2018-08-02T01:35:38.731Z,2.47
2018-08-02T01:38:05.732Z,2.03
2018-08-02T01:40:32.769Z,2.07
2018-08-02T01:42:59.763Z,2.10
2018-08-02T01:45:27.380Z,2.40
2018-08-02T01:47:54.459Z,2.20
2018-08-02T01:50:21.432Z,2.13
2018-08-02T01:52:48.444Z,1.90
2018-08-02T01:55:15.531Z,2.10
2018-08-02T02:00:24.930Z,2.20
2018-08-02T02:02:51.939Z,2.03
2018-08-02T02:05:18.930Z,2.10
2018-08-02T02:07:46.023Z,2.63
2018-08-02T02:10:13.032Z,2.37
2018-08-02T02:12:40.542Z,1.70
2018-08-02T02:15:07.590Z,2.07
2018-08-02T02:17:34.582Z,1.90
2018-08-02T02:20:01.667Z,2.50
2018-08-02T02:22:28.728Z,2.00
2018-08-02T02:24:55.721Z,2.00
2018-08-02T02:27:22.807Z,1.83
2018-08-02T02:29:49.861Z,2.27
2018-08-02T02:32:16.863Z,2.30
2018-08-02T02:34:43.942Z,2.10
2018-08-02T02:37:11.012Z,2.43
2018-08-02T02:39:38.035Z,2.03
2018-08-02T02:42:05.005Z,2.13
2018-08-02T02:44:32.080Z,2.07
2018-08-02T02:46:59.334Z,2.27
2018-08-02T02:49:26.090Z,2.20
2018-08-02T02:54:33.298Z,2.33
2018-08-02T02:57:00.350Z,2.10
2018-08-02T02:59:27.352Z,2.00
2018-08-02T03:01:54.347Z,2.57
2018-08-02T03:04:21.405Z,2.13
2018-08-02T03:06:49.224Z,2.37
2018-08-02T03:09:16.295Z,2.30
2018-08-02T03:11:44.299Z,2.50
2018-08-02T03:14:11.326Z,2.40
2018-08-02T03:16:38.338Z,2.13
2018-08-02T03:19:05.403Z,2.63
2018-08-02T03:21:32.396Z,2.83
2018-08-02T03:23:59.396Z,2.27
2018-08-02T03:26:27.395Z,2.40
2018-08-02T03:28:55.357Z,2.80
2018-08-02T03:31:23.337Z,2.20
2018-08-02T03:33:50.400Z,3.10
2018-08-02T03:36:18.215Z,2.60
2018-08-02T03:38:45.210Z,2.67
2018-08-02T03:41:12.253Z,3.13
2018-08-02T03:43:39.232Z,2.57
2018-08-02T03:46:06.238Z,2.57
2018-08-02T03:48:33.292Z,2.73
2018-08-02T03:51:00.301Z,2.80
2018-08-02T03:53:27.318Z,2.87
2018-08-02T03:55:54.382Z,2.80
2018-08-02T03:58:21.501Z,2.80
2018-08-02T04:00:48.494Z,3.13
2018-08-02T04:03:15.531Z,2.83
2018-08-02T04:05:42.615Z,2.87
2018-08-02T04:08:09.522Z,2.67
2018-08-02T04:10:36.590Z,2.67
2018-08-02T04:13:03.579Z,2.73
2018-08-02T04:18:09.236Z,3.15
2018-08-02T04:20:36.385Z,3.20
2018-08-02T04:23:03.391Z,3.00
2018-08-02T04:25:31.250Z,3.07
2018-08-02T04:27:58.234Z,2.60
2018-08-02T04:30:25.226Z,2.80
2018-08-02T04:32:56.358Z,2.90
2018-08-02T04:35:23.373Z,2.50
2018-08-02T04:37:50.360Z,2.90
2018-08-02T04:40:17.389Z,2.67
2018-08-02T04:42:44.460Z,2.87
2018-08-02T04:45:12.414Z,2.90
2018-08-02T04:47:39.482Z,2.67
2018-08-02T04:50:06.469Z,2.80
2018-08-02T04:52:33.461Z,3.07
2018-08-02T04:55:00.500Z,2.70
2018-08-02T04:57:27.490Z,3.10
2018-08-02T04:59:54.909Z,2.97
2018-08-02T05:02:21.973Z,2.60
2018-08-02T05:04:48.986Z,2.93
2018-08-02T05:07:15.978Z,2.80
2018-08-02T05:09:43.019Z,2.90
2018-08-02T05:12:10.012Z,2.80
2018-08-02T05:14:37.134Z,2.80
2018-08-02T05:17:04.175Z,3.37
2018-08-02T05:19:31.188Z,3.00
2018-08-02T05:21:58.173Z,2.83
2018-08-02T05:24:25.220Z,3.00
2018-08-02T05:26:52.215Z,2.73
2018-08-02T05:29:19.222Z,2.93
2018-08-02T05:31:46.300Z,2.87
2018-08-02T05:36:52.903Z,2.97
2018-08-02T05:41:57.999Z,3.53
2018-08-02T05:44:25.306Z,2.93
2018-08-02T05:46:52.314Z,2.80
2018-08-02T05:49:19.382Z,2.90
2018-08-02T05:51:46.380Z,3.50
2018-08-02T05:54:13.379Z,3.37
2018-08-02T05:56:40.417Z,3.30
2018-08-02T05:59:07.848Z,3.07
2018-08-02T06:01:34.860Z,2.50
2018-08-02T06:04:01.893Z,3.37
2018-08-02T06:06:29.061Z,3.57
2018-08-02T06:08:56.442Z,3.17
2018-08-02T06:11:23.431Z,3.07
2018-08-02T06:13:50.426Z,3.10
2018-08-02T06:16:17.415Z,3.33
2018-08-02T06:18:44.498Z,3.33
2018-08-02T06:21:11.501Z,2.93
2018-08-02T06:23:38.479Z,3.07
2018-08-02T06:26:05.531Z,2.77
2018-08-02T06:28:32.512Z,3.07
2018-08-02T06:30:59.532Z,2.60
2018-08-02T06:33:26.592Z,2.70
2018-08-02T06:38:32.204Z,3.08
2018-08-02T06:40:59.271Z,2.50
2018-08-02T06:43:26.253Z,2.60
2018-08-02T06:45:53.294Z,2.83
2018-08-02T06:48:19.787Z,3.03
2018-08-02T06:53:17.960Z,2.97
2018-08-02T06:55:45.883Z,2.60
2018-08-02T06:58:12.875Z,2.97
2018-08-02T07:00:39.906Z,2.60
2018-08-02T07:03:07.003Z,2.83
2018-08-02T07:05:33.992Z,3.07
2018-08-02T07:08:01.023Z,2.83
2018-08-02T07:10:28.017Z,2.90
2018-08-02T07:12:54.996Z,2.93
2018-08-02T07:15:22.050Z,2.67
2018-08-02T07:17:49.039Z,2.93
2018-08-02T07:20:16.107Z,3.13
2018-08-02T07:22:43.135Z,3.90
2018-08-02T07:25:10.121Z,3.13
2018-08-02T07:27:37.111Z,2.60
2018-08-02T07:30:04.170Z,2.90
2018-08-02T07:32:31.239Z,2.80
2018-08-02T07:34:58.224Z,3.00
2018-08-02T07:37:25.258Z,3.00
2018-08-02T07:42:30.776Z,3.10
2018-08-02T07:44:57.761Z,2.93
2018-08-02T07:47:24.742Z,3.30
2018-08-02T07:49:51.775Z,3.10
2018-08-02T07:52:19.492Z,3.33
2018-08-02T07:54:46.488Z,3.40
2018-08-02T07:57:13.543Z,2.93
2018-08-02T07:59:40.534Z,3.07
2018-08-02T08:02:07.524Z,3.20
2018-08-02T08:04:34.552Z,2.60
2018-08-02T08:07:01.546Z,2.50
2018-08-02T08:09:28.540Z,3.20
2018-08-02T08:11:57.339Z,3.30
2018-08-02T08:14:24.313Z,3.13
2018-08-02T08:16:51.307Z,3.57
2018-08-02T08:19:18.337Z,3.17
2018-08-02T08:21:45.382Z,2.90
2018-08-02T08:24:12.334Z,2.83
2018-08-02T08:26:39.374Z,3.20
2018-08-02T08:29:06.362Z,3.10
2018-08-02T08:31:33.349Z,3.43
2018-08-02T08:34:00.376Z,3.10
2018-08-02T08:36:27.415Z,3.73
2018-08-02T08:38:54.358Z,2.73
2018-08-02T08:41:21.416Z,3.30
2018-08-02T08:43:48.413Z,2.67
2018-08-02T08:46:15.386Z,2.80
2018-08-02T08:48:42.441Z,3.17
2018-08-02T08:51:09.509Z,3.10
2018-08-02T08:53:36.491Z,3.50
2018-08-02T08:56:03.517Z,2.80
2018-08-02T08:58:30.501Z,3.10
2018-08-02T09:03:36.070Z,3.43
2018-08-02T09:06:03.008Z,3.10
2018-08-02T09:08:29.997Z,3.20
2018-08-02T09:10:57.041Z,3.03
2018-08-02T09:13:24.021Z,3.07
2018-08-02T09:15:50.999Z,3.17
2018-08-02T09:18:18.027Z,3.43
2018-08-02T09:20:45.004Z,3.30
2018-08-02T09:23:11.986Z,3.47
2018-08-02T09:25:39.037Z,3.53
2018-08-02T09:28:06.021Z,3.90
2018-08-02T09:30:33.640Z,3.40
2018-08-02T09:33:01.489Z,3.70
2018-08-02T09:35:28.452Z,3.83
2018-08-02T09:37:55.456Z,3.30
2018-08-02T09:40:22.509Z,3.77
2018-08-02T09:42:49.488Z,3.90
2018-08-02T09:45:16.483Z,3.58
2018-08-02T09:47:43.507Z,3.50
2018-08-02T09:50:10.589Z,3.05
2018-08-02T09:52:37.573Z,3.90
2018-08-02T09:55:04.627Z,3.53
2018-08-02T09:57:31.609Z,4.07
2018-08-02T09:59:58.578Z,3.40
2018-08-02T10:02:25.776Z,3.83
2018-08-02T10:04:52.616Z,4.22
2018-08-02T10:07:19.600Z,3.97
2018-08-02T10:09:46.661Z,3.92
2018-08-02T10:12:13.650Z,3.40
2018-08-02T10:14:40.653Z,4.12
2018-08-02T10:17:07.696Z,4.60
2018-08-02T10:22:15.193Z,4.03
2018-08-02T10:24:42.168Z,4.70
2018-08-02T10:27:09.153Z,4.12
2018-08-02T10:29:36.189Z,4.10
2018-08-02T10:32:03.181Z,4.87
2018-08-02T10:34:30.163Z,5.12
2018-08-02T10:36:58.020Z,4.47
2018-08-02T10:39:25.010Z,4.90
2018-08-02T10:41:52.934Z,4.87
2018-08-02T10:44:19.996Z,4.80
2018-08-02T10:46:46.979Z,5.05
2018-08-02T10:49:13.969Z,5.12
2018-08-02T10:51:40.999Z,4.72
2018-08-02T10:54:07.978Z,4.18
2018-08-02T10:56:34.963Z,5.22
2018-08-02T10:59:02.018Z,4.28
2018-08-02T11:01:29.069Z,4.60
2018-08-02T11:03:55.995Z,4.50
2018-08-02T11:06:23.014Z,5.18
2018-08-02T11:08:50.083Z,4.20
2018-08-02T11:11:17.069Z,5.00
2018-08-02T11:13:44.128Z,4.57
2018-08-02T11:16:11.106Z,4.80
2018-08-02T11:18:38.091Z,4.50
2018-08-02T11:21:05.126Z,4.85
2018-08-02T11:26:12.635Z,5.50
2018-08-02T11:28:39.619Z,5.03
2018-08-02T11:31:06.599Z,5.18
2018-08-02T11:33:33.626Z,5.22
2018-08-02T11:36:00.703Z,5.37
2018-08-02T11:38:27.688Z,5.22
2018-08-02T11:40:54.744Z,6.07
2018-08-02T11:43:21.721Z,5.75
2018-08-02T11:45:48.708Z,5.68
2018-08-02T11:48:15.734Z,5.57
2018-08-02T11:50:42.881Z,6.00
2018-08-02T11:53:09.830Z,6.05
2018-08-02T11:55:36.880Z,5.85
2018-08-02T11:58:03.863Z,6.45
2018-08-02T12:00:30.866Z,6.35
2018-08-02T12:02:57.974Z,6.22
2018-08-02T12:05:24.947Z,6.57
2018-08-02T12:07:51.938Z,6.28
2018-08-02T12:10:18.991Z,6.20
2018-08-02T12:12:45.979Z,6.87
2018-08-02T12:15:13.003Z,6.10
2018-08-02T12:17:40.044Z,6.95
2018-08-02T12:20:07.037Z,5.93
2018-08-02T12:22:34.024Z,6.43
2018-08-02T12:25:01.088Z,6.25
2018-08-02T12:27:28.070Z,6.15
2018-08-02T12:29:55.053Z,6.15
2018-08-02T12:32:22.089Z,6.45
2018-08-02T12:34:49.075Z,6.43
2018-08-02T12:37:16.073Z,6.25
2018-08-02T12:39:43.131Z,6.20
2018-08-02T12:42:10.114Z,6.25
2018-08-02T12:44:37.099Z,6.47
2018-08-02T12:47:04.206Z,6.75
2018-08-02T12:52:11.711Z,6.40
2018-08-02T12:54:38.672Z,6.93
2018-08-02T12:57:05.641Z,6.35
2018-08-02T12:59:32.698Z,6.72
2018-08-02T13:02:00.511Z,6.40
2018-08-02T13:04:27.504Z,6.62
2018-08-02T13:06:54.532Z,7.55
2018-08-02T13:09:21.564Z,6.90
2018-08-02T13:11:48.497Z,7.12
2018-08-02T13:14:15.564Z,7.87
2018-08-02T13:16:42.555Z,8.50
2018-08-02T13:19:09.537Z,8.27
2018-08-02T13:21:36.593Z,7.95
2018-08-02T13:24:03.587Z,7.62
2018-08-02T13:26:30.659Z,8.70
2018-08-02T13:28:57.685Z,8.15
2018-08-02T13:31:24.670Z,7.90
2018-08-02T13:33:51.670Z,7.68
2018-08-02T13:36:18.741Z,6.90
2018-08-02T13:38:46.688Z,8.18
2018-08-02T13:41:13.678Z,6.97
2018-08-02T13:43:40.731Z,8.10
2018-08-02T13:46:07.693Z,7.40
2018-08-02T13:48:35.512Z,7.55
2018-08-02T13:51:02.564Z,7.50
2018-08-02T13:53:29.549Z,6.93
2018-08-02T13:55:56.550Z,6.93
2018-08-02T13:58:23.641Z,7.60
2018-08-02T14:00:50.624Z,6.70
2018-08-02T14:05:56.127Z,7.10
2018-08-02T14:08:23.118Z,6.82
2018-08-02T14:10:51.059Z,6.95
2018-08-02T14:13:18.096Z,6.15
2018-08-02T14:15:45.826Z,5.70
2018-08-02T14:18:12.816Z,6.55
2018-08-02T14:20:40.598Z,6.40
2018-08-02T14:23:07.669Z,5.95
2018-08-02T14:25:35.416Z,7.00
2018-08-02T14:28:02.476Z,7.40
2018-08-02T14:30:29.462Z,7.62
2018-08-02T14:32:56.440Z,7.85
2018-08-02T14:35:23.543Z,8.73
2018-08-02T14:37:50.611Z,8.38
2018-08-02T14:40:17.525Z,8.05
2018-08-02T14:42:44.615Z,7.60
2018-08-02T14:45:11.837Z,8.60
2018-08-02T14:47:38.559Z,7.45
2018-08-02T14:50:05.592Z,8.18
2018-08-02T14:52:32.604Z,8.73
2018-08-02T14:55:00.457Z,8.02
2018-08-02T14:57:28.414Z,8.02
2018-08-02T14:59:55.403Z,7.65
2018-08-02T15:02:22.407Z,7.47
2018-08-02T15:04:49.428Z,6.43
2018-08-02T15:07:16.413Z,6.53
2018-08-02T15:09:43.478Z,5.57
2018-08-02T15:12:10.534Z,5.67
2018-08-02T15:14:37.525Z,5.50
2018-08-02T15:17:04.560Z,5.10
2018-08-02T15:19:32.491Z,6.40
2018-08-02T15:24:40.022Z,6.03
2018-08-02T15:27:07.013Z,5.40
2018-08-02T15:29:33.994Z,6.97
2018-08-02T15:32:01.075Z,7.73
2018-08-02T15:34:28.010Z,9.00
2018-08-02T15:36:55.006Z,9.90
2018-08-02T15:39:22.870Z,9.17
2018-08-02T15:41:49.861Z,9.20
2018-08-02T15:44:16.855Z,9.30
2018-08-02T15:46:44.702Z,9.07
2018-08-02T15:49:11.692Z,9.13
2018-08-02T15:51:38.695Z,9.93
2018-08-02T15:54:05.763Z,10.40
2018-08-02T15:56:32.753Z,10.30
2018-08-02T15:58:59.742Z,9.50
2018-08-02T16:01:26.777Z,10.70
2018-08-02T16:03:53.762Z,10.40
2018-08-02T16:06:20.749Z,9.73
2018-08-02T16:08:47.782Z,9.63
2018-08-02T16:11:14.810Z,10.53
2018-08-02T16:13:41.796Z,11.53
2018-08-02T16:16:08.831Z,11.73
2018-08-02T16:18:35.831Z,10.23
2018-08-02T16:21:02.838Z,10.00
2018-08-02T16:23:29.999Z,10.43
2018-08-02T16:25:57.000Z,10.67
2018-08-02T16:28:24.001Z,10.43
2018-08-02T16:30:51.720Z,9.80
2018-08-02T16:35:58.083Z,12.17
2018-08-02T16:38:25.073Z,10.30
2018-08-02T16:40:52.070Z,9.67
2018-08-02T16:43:19.117Z,9.53
2018-08-02T16:45:46.100Z,8.20
2018-08-02T16:48:13.095Z,8.77
2018-08-02T16:50:40.229Z,7.67
2018-08-02T16:53:07.723Z,8.07
2018-08-02T16:55:34.626Z,8.47
2018-08-02T16:58:01.677Z,8.23
2018-08-02T17:00:28.668Z,8.87
2018-08-02T17:02:55.652Z,8.23
2018-08-02T17:05:22.691Z,8.00
2018-08-02T17:07:49.681Z,9.50
2018-08-02T17:10:16.668Z,9.33
2018-08-02T17:12:43.708Z,8.23
2018-08-02T17:15:10.692Z,8.57
2018-08-02T17:17:37.780Z,9.30
2018-08-02T17:20:04.827Z,10.60
2018-08-02T17:22:31.925Z,11.83
2018-08-02T17:24:58.930Z,10.37
2018-08-02T17:27:25.979Z,10.60
2018-08-02T17:29:52.968Z,10.50
2018-08-02T17:32:19.981Z,11.73
2018-08-02T17:34:47.019Z,10.37
2018-08-02T17:37:14.020Z,9.33
2018-08-02T17:39:41.024Z,10.10
2018-08-02T17:42:08.085Z,10.80
2018-08-02T17:44:35.079Z,11.13
2018-08-02T17:47:02.060Z,9.80
2018-08-02T17:49:29.832Z,9.83
2018-08-02T17:54:35.602Z,10.40
2018-08-02T17:57:02.584Z,9.00
2018-08-02T17:59:29.583Z,9.03
2018-08-02T18:01:56.756Z,8.13
2018-08-02T18:04:23.621Z,7.27
2018-08-02T18:06:50.604Z,7.20
2018-08-02T18:09:18.447Z,8.30
2018-08-02T18:11:52.385Z,7.97
2018-08-02T18:14:12.584Z,7.60
2018-08-02T18:16:40.493Z,7.33
2018-08-02T18:19:07.506Z,7.07
2018-08-02T18:21:35.858Z,7.33
2018-08-02T18:24:03.602Z,8.57
2018-08-02T18:26:31.067Z,7.60
2018-08-02T18:28:58.817Z,7.10
2018-08-02T18:31:26.803Z,7.00
2018-08-02T18:33:53.801Z,7.17
2018-08-02T18:36:20.794Z,7.07
2018-08-02T18:38:48.833Z,7.03
2018-08-02T18:41:15.833Z,6.83
2018-08-02T18:43:43.027Z,6.23
2018-08-02T18:46:10.036Z,6.77
2018-08-02T18:48:37.033Z,6.33
2018-08-02T18:51:04.033Z,6.57
2018-08-02T18:53:31.154Z,7.03
2018-08-02T18:55:58.118Z,7.10
2018-08-02T18:58:25.117Z,8.70
2018-08-02T19:00:52.202Z,7.37
2018-08-02T19:06:00.028Z,8.03
2018-08-02T19:08:27.028Z,7.17
2018-08-02T19:10:54.029Z,7.10
2018-08-02T19:13:21.077Z,6.90
2018-08-02T19:15:48.093Z,6.80
2018-08-02T19:18:15.143Z,7.27
2018-08-02T19:20:42.195Z,7.23
2018-08-02T19:23:09.184Z,7.23
2018-08-02T19:25:36.178Z,7.20
2018-08-02T19:28:03.295Z,8.03
2018-08-02T19:30:30.322Z,7.10
2018-08-02T19:32:57.329Z,7.63
2018-08-02T19:35:24.358Z,7.67
2018-08-02T19:37:51.439Z,7.07
2018-08-02T19:40:18.368Z,8.40
2018-08-02T19:42:45.455Z,7.73
2018-08-02T19:45:12.525Z,7.30
2018-08-02T19:47:39.498Z,6.90
2018-08-02T19:50:06.529Z,6.63
2018-08-02T19:52:33.536Z,7.10
2018-08-02T19:55:00.532Z,7.10
2018-08-02T19:57:27.620Z,7.63
2018-08-02T19:59:54.614Z,7.87
2018-08-02T20:02:21.613Z,8.10
2018-08-02T20:04:48.722Z,7.73
2018-08-02T20:07:15.703Z,8.03
2018-08-02T20:09:42.713Z,7.50
2018-08-02T20:12:09.809Z,8.00
2018-08-02T20:14:36.803Z,8.33
2018-08-02T20:17:03.792Z,7.33
2018-08-02T20:19:30.835Z,8.10
2018-08-02T20:21:57.899Z,8.20
2018-08-02T20:27:03.450Z,8.80
2018-08-02T20:29:30.476Z,8.10
2018-08-02T20:31:58.322Z,8.70
2018-08-02T20:34:25.548Z,8.80
2018-08-02T20:36:52.584Z,7.83
2018-08-02T20:39:19.607Z,8.40
2018-08-02T20:41:46.689Z,7.83
2018-08-02T20:44:13.708Z,8.70
2018-08-02T20:46:40.722Z,8.37
2018-08-02T20:49:07.775Z,8.83
2018-08-02T20:51:34.772Z,8.37
2018-08-02T20:54:01.793Z,7.83
2018-08-02T20:56:29.001Z,8.33
2018-08-02T20:58:56.188Z,8.33
2018-08-02T21:01:23.218Z,8.97
2018-08-02T21:03:50.279Z,9.40
2018-08-02T21:06:17.298Z,8.47
2018-08-02T21:08:44.307Z,8.60
2018-08-02T21:11:11.398Z,9.60
2018-08-02T21:13:39.171Z,8.63
2018-08-02T21:16:06.189Z,10.17
2018-08-02T21:18:33.233Z,10.43
2018-08-02T21:21:00.331Z,10.37
2018-08-02T21:23:27.336Z,10.87
2018-08-02T21:25:55.253Z,10.43
2018-08-02T21:28:22.258Z,10.87
2018-08-02T21:36:18.067Z,11.12
2018-08-02T21:38:45.527Z,9.47
2018-08-02T21:41:13.249Z,9.40
2018-08-02T21:43:39.952Z,10.40
2018-08-02T21:46:06.977Z,9.80
2018-08-02T21:48:37.543Z,9.47
2018-08-02T21:51:04.635Z,9.47
2018-08-02T21:53:31.637Z,9.00
2018-08-02T21:55:58.730Z,9.77
2018-08-02T21:58:25.785Z,9.90
2018-08-02T22:00:52.800Z,9.80
2018-08-02T22:03:19.822Z,9.00
2018-08-02T22:05:47.082Z,9.40
2018-08-02T22:08:14.090Z,9.40
2018-08-02T22:10:41.119Z,9.83
2018-08-02T22:13:09.119Z,9.40
2018-08-02T22:15:36.161Z,9.63
2018-08-02T22:18:03.146Z,9.60
2018-08-02T22:20:30.226Z,10.77
2018-08-02T22:22:57.994Z,11.37
2018-08-02T22:25:25.028Z,11.20
2018-08-02T22:27:52.102Z,11.27
2018-08-02T22:30:19.204Z,10.53
2018-08-02T22:32:46.231Z,10.67
2018-08-02T22:35:13.295Z,10.40
2018-08-02T22:37:40.304Z,11.03
2018-08-02T22:40:07.307Z,9.83
2018-08-02T22:42:34.373Z,10.17
2018-08-02T22:45:01.834Z,9.90
2018-08-02T22:47:29.191Z,10.47
2018-08-02T22:49:57.186Z,10.57
2018-08-02T22:55:04.717Z,11.45
2018-08-02T22:57:31.721Z,11.20
2018-08-02T22:59:58.742Z,10.67
2018-08-02T23:02:26.652Z,10.70
2018-08-02T23:04:54.460Z,12.57
2018-08-02T23:07:21.525Z,12.73
2018-08-02T23:09:48.677Z,14.30
2018-08-02T23:12:15.786Z,14.93
2018-08-02T23:14:42.785Z,15.27
2018-08-02T23:17:09.847Z,14.47
2018-08-02T23:19:36.882Z,13.90
2018-08-02T23:22:03.905Z,14.50
2018-08-02T23:24:31.823Z,13.00
2018-08-02T23:26:58.832Z,14.20
2018-08-02T23:29:25.854Z,14.70
2018-08-02T23:31:53.306Z,13.60
2018-08-02T23:34:20.396Z,15.70
2018-08-02T23:36:47.459Z,13.33
2018-08-02T23:39:14.753Z,12.53
2018-08-02T23:41:41.906Z,12.97
2018-08-02T23:44:09.841Z,11.40
2018-08-02T23:46:37.867Z,11.20
2018-08-02T23:49:04.878Z,12.17
2018-08-02T23:51:31.964Z,11.60
2018-08-02T23:53:59.003Z,12.03
2018-08-02T23:56:26.102Z,12.77
2018-08-02T23:58:53.128Z,11.50
